sensor_id;sensor_type;location;lat;lon;timestamp;P1;durP1;ratioP1;P2;durP2;ratioP2
58565;SDS011;47788;46.172;-1.158;2022-10-15T00:00:33;34.90;;;4.82;;
58565;SDS011;47788;46.172;-1.158;2022-10-15T00:02:59;29.92;;;5.57;;
58565;SDS011;47788;46.172;-1.158;2022-10-15T00:05:25;24.90;;;4.30;;
58565;SDS011;47788;46.172;-1.158;2022-10-15T00:07:51;38.67;;;5.05;;
58565;SDS011;47788;46.172;-1.158;2022-10-15T00:10:17;27.52;;;4.28;;
58565;SDS011;47788;46.172;-1.158;2022-10-15T00:12:43;41.35;;;5.20;;
58565;SDS011;47788;46.172;-1.158;2022-10-15T00:15:09;28.02;;;4.60;;
58565;SDS011;47788;46.172;-1.158;2022-10-15T00:17:35;32.28;;;4.90;;
58565;SDS011;47788;46.172;-1.158;2022-10-15T00:20:02;33.78;;;4.38;;
58565;SDS011;47788;46.172;-1.158;2022-10-15T00:22:30;39.20;;;4.50;;
58565;SDS011;47788;46.172;-1.158;2022-10-15T00:24:56;36.65;;;4.85;;
58565;SDS011;47788;46.172;-1.158;2022-10-15T00:27:21;27.73;;;3.78;;
58565;SDS011;47788;46.172;-1.158;2022-10-15T00:29:47;30.00;;;5.10;;
58565;SDS011;47788;46.172;-1.158;2022-10-15T00:32:13;22.98;;;3.67;;
58565;SDS011;47788;46.172;-1.158;2022-10-15T00:34:38;26.63;;;3.90;;
58565;SDS011;47788;46.172;-1.158;2022-10-15T00:37:05;23.75;;;4.07;;
58565;SDS011;47788;46.172;-1.158;2022-10-15T00:39:31;27.80;;;4.13;;
58565;SDS011;47788;46.172;-1.158;2022-10-15T00:41:56;28.73;;;5.63;;
58565;SDS011;47788;46.172;-1.158;2022-10-15T00:54:22;31.05;;;4.82;;
58565;SDS011;47788;46.172;-1.158;2022-10-15T00:56:50;30.02;;;4.70;;
58565;SDS011;47788;46.172;-1.158;2022-10-15T00:59:17;28.75;;;4.60;;
58565;SDS011;47788;46.172;-1.158;2022-10-15T01:01:46;19.15;;;2.97;;
58565;SDS011;47788;46.172;-1.158;2022-10-15T01:04:12;29.63;;;4.50;;
58565;SDS011;47788;46.172;-1.158;2022-10-15T01:06:39;30.45;;;4.20;;
58565;SDS011;47788;46.172;-1.158;2022-10-15T01:09:05;34.03;;;4.18;;
58565;SDS011;47788;46.172;-1.158;2022-10-15T01:11:47;29.00;;;4.13;;
58565;SDS011;47788;46.172;-1.158;2022-10-15T01:30:46;29.77;;;4.05;;
58565;SDS011;47788;46.172;-1.158;2022-10-15T01:35:58;27.00;;;4.57;;
58565;SDS011;47788;46.172;-1.158;2022-10-15T01:43:36;25.55;;;4.70;;
58565;SDS011;47788;46.172;-1.158;2022-10-15T01:46:10;29.30;;;4.45;;
58565;SDS011;47788;46.172;-1.158;2022-10-15T01:48:42;30.42;;;4.25;;
58565;SDS011;47788;46.172;-1.158;2022-10-15T01:51:09;31.90;;;4.57;;
58565;SDS011;47788;46.172;-1.158;2022-10-15T01:53:36;28.05;;;4.05;;
58565;SDS011;47788;46.172;-1.158;2022-10-15T01:56:05;26.98;;;4.15;;
58565;SDS011;47788;46.172;-1.158;2022-10-15T01:58:44;29.15;;;5.30;;
58565;SDS011;47788;46.172;-1.158;2022-10-15T02:01:13;29.45;;;4.85;;
58565;SDS011;47788;46.172;-1.158;2022-10-15T02:03:47;33.28;;;4.30;;
58565;SDS011;47788;46.172;-1.158;2022-10-15T02:06:28;22.75;;;3.60;;
58565;SDS011;47788;46.172;-1.158;2022-10-15T02:11:28;28.20;;;4.43;;
58565;SDS011;47788;46.172;-1.158;2022-10-15T02:14:02;27.05;;;4.25;;
58565;SDS011;47788;46.172;-1.158;2022-10-15T02:17:09;31.55;;;3.88;;
58565;SDS011;47788;46.172;-1.158;2022-10-15T02:19:42;29.88;;;5.07;;
58565;SDS011;47788;46.172;-1.158;2022-10-15T02:22:15;34.17;;;4.65;;
58565;SDS011;47788;46.172;-1.158;2022-10-15T02:27:15;35.63;;;5.13;;
58565;SDS011;47788;46.172;-1.158;2022-10-15T02:29:43;29.33;;;4.70;;
58565;SDS011;47788;46.172;-1.158;2022-10-15T02:32:10;34.38;;;4.10;;
58565;SDS011;47788;46.172;-1.158;2022-10-15T02:34:39;37.17;;;4.43;;
58565;SDS011;47788;46.172;-1.158;2022-10-15T02:37:05;35.13;;;5.35;;
58565;SDS011;47788;46.172;-1.158;2022-10-15T02:39:32;35.50;;;4.43;;
58565;SDS011;47788;46.172;-1.158;2022-10-15T02:41:58;38.72;;;5.70;;
58565;SDS011;47788;46.172;-1.158;2022-10-15T02:44:24;30.35;;;5.28;;
58565;SDS011;47788;46.172;-1.158;2022-10-15T02:46:51;33.22;;;4.07;;
58565;SDS011;47788;46.172;-1.158;2022-10-15T02:49:17;32.53;;;4.78;;
58565;SDS011;47788;46.172;-1.158;2022-10-15T02:51:42;29.90;;;4.30;;
58565;SDS011;47788;46.172;-1.158;2022-10-15T02:54:08;36.92;;;5.28;;
58565;SDS011;47788;46.172;-1.158;2022-10-15T02:56:34;28.52;;;4.60;;
58565;SDS011;47788;46.172;-1.158;2022-10-15T02:59:00;32.83;;;5.07;;
58565;SDS011;47788;46.172;-1.158;2022-10-15T03:01:25;29.92;;;4.35;;
58565;SDS011;47788;46.172;-1.158;2022-10-15T03:03:51;33.47;;;5.10;;
58565;SDS011;47788;46.172;-1.158;2022-10-15T03:06:17;35.72;;;5.00;;
58565;SDS011;47788;46.172;-1.158;2022-10-15T03:08:42;43.17;;;5.35;;
58565;SDS011;47788;46.172;-1.158;2022-10-15T03:11:09;30.08;;;4.22;;
58565;SDS011;47788;46.172;-1.158;2022-10-15T03:13:36;43.35;;;7.60;;
58565;SDS011;47788;46.172;-1.158;2022-10-15T03:16:03;42.70;;;6.10;;
58565;SDS011;47788;46.172;-1.158;2022-10-15T03:18:30;45.35;;;6.22;;
58565;SDS011;47788;46.172;-1.158;2022-10-15T03:20:56;36.17;;;5.25;;
58565;SDS011;47788;46.172;-1.158;2022-10-15T03:23:22;46.85;;;6.28;;
58565;SDS011;47788;46.172;-1.158;2022-10-15T03:25:48;52.40;;;6.43;;
58565;SDS011;47788;46.172;-1.158;2022-10-15T03:28:14;30.45;;;5.05;;
58565;SDS011;47788;46.172;-1.158;2022-10-15T03:30:40;51.00;;;5.82;;
58565;SDS011;47788;46.172;-1.158;2022-10-15T03:33:07;42.60;;;6.70;;
58565;SDS011;47788;46.172;-1.158;2022-10-15T03:35:33;35.13;;;5.88;;
58565;SDS011;47788;46.172;-1.158;2022-10-15T03:37:58;42.92;;;5.43;;
58565;SDS011;47788;46.172;-1.158;2022-10-15T03:40:24;46.08;;;7.07;;
58565;SDS011;47788;46.172;-1.158;2022-10-15T03:42:50;48.30;;;6.05;;
58565;SDS011;47788;46.172;-1.158;2022-10-15T03:45:17;46.72;;;6.63;;
58565;SDS011;47788;46.172;-1.158;2022-10-15T03:47:44;33.42;;;4.90;;
58565;SDS011;47788;46.172;-1.158;2022-10-15T03:50:09;41.25;;;6.03;;
58565;SDS011;47788;46.172;-1.158;2022-10-15T03:52:36;39.47;;;5.72;;
58565;SDS011;47788;46.172;-1.158;2022-10-15T03:55:02;42.97;;;5.50;;
58565;SDS011;47788;46.172;-1.158;2022-10-15T03:57:28;43.05;;;5.28;;
58565;SDS011;47788;46.172;-1.158;2022-10-15T03:59:54;44.83;;;5.05;;
58565;SDS011;47788;46.172;-1.158;2022-10-15T04:02:19;39.97;;;6.15;;
58565;SDS011;47788;46.172;-1.158;2022-10-15T04:04:46;32.03;;;5.60;;
58565;SDS011;47788;46.172;-1.158;2022-10-15T04:07:11;45.03;;;5.57;;
58565;SDS011;47788;46.172;-1.158;2022-10-15T04:09:37;36.40;;;5.40;;
58565;SDS011;47788;46.172;-1.158;2022-10-15T04:12:03;32.35;;;5.18;;
58565;SDS011;47788;46.172;-1.158;2022-10-15T04:14:29;33.85;;;5.15;;
58565;SDS011;47788;46.172;-1.158;2022-10-15T04:16:55;41.97;;;6.22;;
58565;SDS011;47788;46.172;-1.158;2022-10-15T04:19:23;42.38;;;5.97;;
58565;SDS011;47788;46.172;-1.158;2022-10-15T04:21:48;33.67;;;5.15;;
58565;SDS011;47788;46.172;-1.158;2022-10-15T04:24:14;39.83;;;5.88;;
58565;SDS011;47788;46.172;-1.158;2022-10-15T04:26:40;33.35;;;5.45;;
58565;SDS011;47788;46.172;-1.158;2022-10-15T04:29:05;32.83;;;5.05;;
58565;SDS011;47788;46.172;-1.158;2022-10-15T04:31:31;28.55;;;5.15;;
58565;SDS011;47788;46.172;-1.158;2022-10-15T04:33:57;31.20;;;4.00;;
58565;SDS011;47788;46.172;-1.158;2022-10-15T04:36:23;27.15;;;4.75;;
58565;SDS011;47788;46.172;-1.158;2022-10-15T04:38:48;28.50;;;4.13;;
58565;SDS011;47788;46.172;-1.158;2022-10-15T04:41:14;31.80;;;4.43;;
58565;SDS011;47788;46.172;-1.158;2022-10-15T04:43:40;36.92;;;5.40;;
58565;SDS011;47788;46.172;-1.158;2022-10-15T04:46:06;35.72;;;4.72;;
58565;SDS011;47788;46.172;-1.158;2022-10-15T04:48:33;29.63;;;4.32;;
58565;SDS011;47788;46.172;-1.158;2022-10-15T04:53:33;33.60;;;4.93;;
58565;SDS011;47788;46.172;-1.158;2022-10-15T04:56:00;33.80;;;4.88;;
58565;SDS011;47788;46.172;-1.158;2022-10-15T04:58:27;32.42;;;4.32;;
58565;SDS011;47788;46.172;-1.158;2022-10-15T05:00:54;33.63;;;4.60;;
58565;SDS011;47788;46.172;-1.158;2022-10-15T05:03:19;31.55;;;4.22;;
58565;SDS011;47788;46.172;-1.158;2022-10-15T05:05:45;33.83;;;5.05;;
58565;SDS011;47788;46.172;-1.158;2022-10-15T05:08:10;30.10;;;4.47;;
58565;SDS011;47788;46.172;-1.158;2022-10-15T05:10:36;30.55;;;4.90;;
58565;SDS011;47788;46.172;-1.158;2022-10-15T05:13:01;34.47;;;5.13;;
58565;SDS011;47788;46.172;-1.158;2022-10-15T05:15:27;25.60;;;4.30;;
58565;SDS011;47788;46.172;-1.158;2022-10-15T05:17:53;31.55;;;4.95;;
58565;SDS011;47788;46.172;-1.158;2022-10-15T05:20:19;29.85;;;4.43;;
58565;SDS011;47788;46.172;-1.158;2022-10-15T05:22:44;34.38;;;4.47;;
58565;SDS011;47788;46.172;-1.158;2022-10-15T05:25:10;37.38;;;5.78;;
58565;SDS011;47788;46.172;-1.158;2022-10-15T05:27:35;38.78;;;4.25;;
58565;SDS011;47788;46.172;-1.158;2022-10-15T05:30:01;27.30;;;4.50;;
58565;SDS011;47788;46.172;-1.158;2022-10-15T05:32:28;37.38;;;5.57;;
58565;SDS011;47788;46.172;-1.158;2022-10-15T05:34:54;30.98;;;4.60;;
58565;SDS011;47788;46.172;-1.158;2022-10-15T05:37:19;36.60;;;5.63;;
58565;SDS011;47788;46.172;-1.158;2022-10-15T05:39:45;38.72;;;5.45;;
58565;SDS011;47788;46.172;-1.158;2022-10-15T05:42:10;33.25;;;5.22;;
58565;SDS011;47788;46.172;-1.158;2022-10-15T05:44:36;33.40;;;5.82;;
58565;SDS011;47788;46.172;-1.158;2022-10-15T05:47:01;34.22;;;6.28;;
58565;SDS011;47788;46.172;-1.158;2022-10-15T05:49:27;45.92;;;6.53;;
58565;SDS011;47788;46.172;-1.158;2022-10-15T05:51:53;41.20;;;7.30;;
58565;SDS011;47788;46.172;-1.158;2022-10-15T05:54:18;41.53;;;7.95;;
58565;SDS011;47788;46.172;-1.158;2022-10-15T05:56:44;40.95;;;6.38;;
58565;SDS011;47788;46.172;-1.158;2022-10-15T05:59:10;49.92;;;7.85;;
58565;SDS011;47788;46.172;-1.158;2022-10-15T06:01:35;47.33;;;7.03;;
58565;SDS011;47788;46.172;-1.158;2022-10-15T06:04:01;55.63;;;6.60;;
58565;SDS011;47788;46.172;-1.158;2022-10-15T06:06:27;50.38;;;6.72;;
58565;SDS011;47788;46.172;-1.158;2022-10-15T06:08:53;34.08;;;5.63;;
58565;SDS011;47788;46.172;-1.158;2022-10-15T06:11:19;31.00;;;6.00;;
58565;SDS011;47788;46.172;-1.158;2022-10-15T06:13:45;42.55;;;7.80;;
58565;SDS011;47788;46.172;-1.158;2022-10-15T06:16:12;38.63;;;6.53;;
58565;SDS011;47788;46.172;-1.158;2022-10-15T06:18:39;42.42;;;6.43;;
58565;SDS011;47788;46.172;-1.158;2022-10-15T06:21:05;42.65;;;6.18;;
58565;SDS011;47788;46.172;-1.158;2022-10-15T06:23:31;40.50;;;5.32;;
58565;SDS011;47788;46.172;-1.158;2022-10-15T06:26:05;52.38;;;6.95;;
58565;SDS011;47788;46.172;-1.158;2022-10-15T06:28:34;42.17;;;5.65;;
58565;SDS011;47788;46.172;-1.158;2022-10-15T06:31:01;31.17;;;4.85;;
58565;SDS011;47788;46.172;-1.158;2022-10-15T06:33:27;39.00;;;5.75;;
58565;SDS011;47788;46.172;-1.158;2022-10-15T06:35:53;33.88;;;5.30;;
58565;SDS011;47788;46.172;-1.158;2022-10-15T06:38:19;38.97;;;6.72;;
58565;SDS011;47788;46.172;-1.158;2022-10-15T06:40:45;43.83;;;5.93;;
58565;SDS011;47788;46.172;-1.158;2022-10-15T06:43:10;40.13;;;7.13;;
58565;SDS011;47788;46.172;-1.158;2022-10-15T06:45:37;24.80;;;4.15;;
58565;SDS011;47788;46.172;-1.158;2022-10-15T06:48:05;34.95;;;5.88;;
58565;SDS011;47788;46.172;-1.158;2022-10-15T06:50:32;41.72;;;5.93;;
58565;SDS011;47788;46.172;-1.158;2022-10-15T06:52:58;40.38;;;5.25;;
58565;SDS011;47788;46.172;-1.158;2022-10-15T06:55:24;27.50;;;4.93;;
58565;SDS011;47788;46.172;-1.158;2022-10-15T06:57:50;26.25;;;4.68;;
58565;SDS011;47788;46.172;-1.158;2022-10-15T07:00:16;27.73;;;4.47;;
58565;SDS011;47788;46.172;-1.158;2022-10-15T07:02:42;29.27;;;4.80;;
58565;SDS011;47788;46.172;-1.158;2022-10-15T07:05:07;20.98;;;4.03;;
58565;SDS011;47788;46.172;-1.158;2022-10-15T07:07:33;35.20;;;4.90;;
58565;SDS011;47788;46.172;-1.158;2022-10-15T07:09:59;30.98;;;5.55;;
58565;SDS011;47788;46.172;-1.158;2022-10-15T07:12:25;34.13;;;4.93;;
58565;SDS011;47788;46.172;-1.158;2022-10-15T07:14:50;21.85;;;4.03;;
58565;SDS011;47788;46.172;-1.158;2022-10-15T07:17:16;25.17;;;3.95;;
58565;SDS011;47788;46.172;-1.158;2022-10-15T07:19:42;28.30;;;4.50;;
58565;SDS011;47788;46.172;-1.158;2022-10-15T07:22:08;33.10;;;5.22;;
58565;SDS011;47788;46.172;-1.158;2022-10-15T07:24:34;28.65;;;4.63;;
58565;SDS011;47788;46.172;-1.158;2022-10-15T07:27:00;31.73;;;5.13;;
58565;SDS011;47788;46.172;-1.158;2022-10-15T07:29:25;36.42;;;5.07;;
58565;SDS011;47788;46.172;-1.158;2022-10-15T07:31:51;25.27;;;4.93;;
58565;SDS011;47788;46.172;-1.158;2022-10-15T07:34:16;27.25;;;4.53;;
58565;SDS011;47788;46.172;-1.158;2022-10-15T07:36:42;31.70;;;4.75;;
58565;SDS011;47788;46.172;-1.158;2022-10-15T07:39:08;32.75;;;5.15;;
58565;SDS011;47788;46.172;-1.158;2022-10-15T07:41:34;25.48;;;4.07;;
58565;SDS011;47788;46.172;-1.158;2022-10-15T07:44:00;30.98;;;5.90;;
58565;SDS011;47788;46.172;-1.158;2022-10-15T07:46:25;34.30;;;4.22;;
58565;SDS011;47788;46.172;-1.158;2022-10-15T07:48:51;25.77;;;5.05;;
58565;SDS011;47788;46.172;-1.158;2022-10-15T07:51:17;29.05;;;4.57;;
58565;SDS011;47788;46.172;-1.158;2022-10-15T07:53:42;36.97;;;5.85;;
58565;SDS011;47788;46.172;-1.158;2022-10-15T07:56:10;35.05;;;5.22;;
58565;SDS011;47788;46.172;-1.158;2022-10-15T07:58:37;33.67;;;5.78;;
58565;SDS011;47788;46.172;-1.158;2022-10-15T08:01:07;35.80;;;5.30;;
58565;SDS011;47788;46.172;-1.158;2022-10-15T08:03:34;37.13;;;5.43;;
58565;SDS011;47788;46.172;-1.158;2022-10-15T08:06:00;44.97;;;5.60;;
58565;SDS011;47788;46.172;-1.158;2022-10-15T08:08:27;46.97;;;6.47;;
58565;SDS011;47788;46.172;-1.158;2022-10-15T08:10:53;37.13;;;5.32;;
58565;SDS011;47788;46.172;-1.158;2022-10-15T08:13:19;42.53;;;5.95;;
58565;SDS011;47788;46.172;-1.158;2022-10-15T08:15:46;40.63;;;5.57;;
58565;SDS011;47788;46.172;-1.158;2022-10-15T08:18:12;40.22;;;5.07;;
58565;SDS011;47788;46.172;-1.158;2022-10-15T08:20:38;38.58;;;5.40;;
58565;SDS011;47788;46.172;-1.158;2022-10-15T08:23:04;38.10;;;5.80;;
58565;SDS011;47788;46.172;-1.158;2022-10-15T08:25:37;30.20;;;4.82;;
58565;SDS011;47788;46.172;-1.158;2022-10-15T08:28:04;32.70;;;6.10;;
58565;SDS011;47788;46.172;-1.158;2022-10-15T08:30:30;16.83;;;4.90;;
58565;SDS011;47788;46.172;-1.158;2022-10-15T08:32:56;9.77;;;2.72;;
58565;SDS011;47788;46.172;-1.158;2022-10-15T08:35:21;12.05;;;1.95;;
58565;SDS011;47788;46.172;-1.158;2022-10-15T08:37:47;9.38;;;1.83;;
58565;SDS011;47788;46.172;-1.158;2022-10-15T08:40:13;12.85;;;1.67;;
58565;SDS011;47788;46.172;-1.158;2022-10-15T08:42:40;14.50;;;2.00;;
58565;SDS011;47788;46.172;-1.158;2022-10-15T08:45:16;11.18;;;1.58;;
58565;SDS011;47788;46.172;-1.158;2022-10-15T08:47:47;13.57;;;3.05;;
58565;SDS011;47788;46.172;-1.158;2022-10-15T08:53:10;17.60;;;3.70;;
58565;SDS011;47788;46.172;-1.158;2022-10-15T08:55:38;21.17;;;7.32;;
58565;SDS011;47788;46.172;-1.158;2022-10-15T09:00:49;20.70;;;7.40;;
58565;SDS011;47788;46.172;-1.158;2022-10-15T09:06:25;14.73;;;4.55;;
58565;SDS011;47788;46.172;-1.158;2022-10-15T09:09:05;15.70;;;4.55;;
58565;SDS011;47788;46.172;-1.158;2022-10-15T09:11:47;15.80;;;3.13;;
58565;SDS011;47788;46.172;-1.158;2022-10-15T09:14:26;20.27;;;3.75;;
58565;SDS011;47788;46.172;-1.158;2022-10-15T09:16:55;21.10;;;5.25;;
58565;SDS011;47788;46.172;-1.158;2022-10-15T09:19:27;17.23;;;4.50;;
58565;SDS011;47788;46.172;-1.158;2022-10-15T09:21:54;17.67;;;5.00;;
58565;SDS011;47788;46.172;-1.158;2022-10-15T09:24:21;10.23;;;2.08;;
58565;SDS011;47788;46.172;-1.158;2022-10-15T09:26:50;14.85;;;3.35;;
58565;SDS011;47788;46.172;-1.158;2022-10-15T09:35:03;11.60;;;1.73;;
58565;SDS011;47788;46.172;-1.158;2022-10-15T09:43:03;15.35;;;2.33;;
58565;SDS011;47788;46.172;-1.158;2022-10-15T09:45:30;15.43;;;2.55;;
58565;SDS011;47788;46.172;-1.158;2022-10-15T09:48:00;13.65;;;2.00;;
58565;SDS011;47788;46.172;-1.158;2022-10-15T09:50:32;14.40;;;1.75;;
58565;SDS011;47788;46.172;-1.158;2022-10-15T09:53:17;13.98;;;2.53;;
58565;SDS011;47788;46.172;-1.158;2022-10-15T09:56:21;9.60;;;2.17;;
58565;SDS011;47788;46.172;-1.158;2022-10-15T09:58:54;9.48;;;1.73;;
58565;SDS011;47788;46.172;-1.158;2022-10-15T10:03:51;8.75;;;2.03;;
58565;SDS011;47788;46.172;-1.158;2022-10-15T10:06:20;5.55;;;1.08;;
58565;SDS011;47788;46.172;-1.158;2022-10-15T10:08:57;8.23;;;1.77;;
58565;SDS011;47788;46.172;-1.158;2022-10-15T10:11:25;9.45;;;1.60;;
58565;SDS011;47788;46.172;-1.158;2022-10-15T10:13:57;4.57;;;1.20;;
58565;SDS011;47788;46.172;-1.158;2022-10-15T10:16:24;4.05;;;0.90;;
58565;SDS011;47788;46.172;-1.158;2022-10-15T10:19:02;6.10;;;0.85;;
58565;SDS011;47788;46.172;-1.158;2022-10-15T10:21:34;5.22;;;1.00;;
58565;SDS011;47788;46.172;-1.158;2022-10-15T10:26:59;7.60;;;1.30;;
58565;SDS011;47788;46.172;-1.158;2022-10-15T10:29:26;8.93;;;0.75;;
58565;SDS011;47788;46.172;-1.158;2022-10-15T10:31:52;6.60;;;0.70;;
58565;SDS011;47788;46.172;-1.158;2022-10-15T10:34:29;7.43;;;0.88;;
58565;SDS011;47788;46.172;-1.158;2022-10-15T10:36:56;6.93;;;0.95;;
58565;SDS011;47788;46.172;-1.158;2022-10-15T10:39:26;8.00;;;1.27;;
58565;SDS011;47788;46.172;-1.158;2022-10-15T10:42:00;8.00;;;1.30;;
58565;SDS011;47788;46.172;-1.158;2022-10-15T10:44:33;7.75;;;1.42;;
58565;SDS011;47788;46.172;-1.158;2022-10-15T10:47:00;5.43;;;1.48;;
58565;SDS011;47788;46.172;-1.158;2022-10-15T10:49:33;5.00;;;1.50;;
58565;SDS011;47788;46.172;-1.158;2022-10-15T10:52:04;5.93;;;1.17;;
58565;SDS011;47788;46.172;-1.158;2022-10-15T10:54:30;5.60;;;1.00;;
58565;SDS011;47788;46.172;-1.158;2022-10-15T10:56:57;7.57;;;1.05;;
58565;SDS011;47788;46.172;-1.158;2022-10-15T10:59:26;5.72;;;1.83;;
58565;SDS011;47788;46.172;-1.158;2022-10-15T11:02:01;6.93;;;1.55;;
58565;SDS011;47788;46.172;-1.158;2022-10-15T11:04:30;6.32;;;1.45;;
58565;SDS011;47788;46.172;-1.158;2022-10-15T11:09:59;2.92;;;0.70;;
58565;SDS011;47788;46.172;-1.158;2022-10-15T11:15:24;4.25;;;1.00;;
58565;SDS011;47788;46.172;-1.158;2022-10-15T11:21:08;10.73;;;4.75;;
58565;SDS011;47788;46.172;-1.158;2022-10-15T11:37:54;6.88;;;2.65;;
58565;SDS011;47788;46.172;-1.158;2022-10-15T11:40:26;9.45;;;1.30;;
58565;SDS011;47788;46.172;-1.158;2022-10-15T11:45:50;5.78;;;0.47;;
58565;SDS011;47788;46.172;-1.158;2022-10-15T11:56:55;6.43;;;0.45;;
58565;SDS011;47788;46.172;-1.158;2022-10-15T12:02:29;4.68;;;0.70;;
58565;SDS011;47788;46.172;-1.158;2022-10-15T12:05:13;5.63;;;0.73;;
58565;SDS011;47788;46.172;-1.158;2022-10-15T12:07:47;4.97;;;0.50;;
58565;SDS011;47788;46.172;-1.158;2022-10-15T12:13:07;4.18;;;0.60;;
58565;SDS011;47788;46.172;-1.158;2022-10-15T12:18:29;4.55;;;1.30;;
58565;SDS011;47788;46.172;-1.158;2022-10-15T12:20:58;5.63;;;0.80;;
58565;SDS011;47788;46.172;-1.158;2022-10-15T12:26:01;3.95;;;0.70;;
58565;SDS011;47788;46.172;-1.158;2022-10-15T12:28:52;2.72;;;0.50;;
58565;SDS011;47788;46.172;-1.158;2022-10-15T12:31:23;3.53;;;0.50;;
58565;SDS011;47788;46.172;-1.158;2022-10-15T12:33:50;4.50;;;0.63;;
58565;SDS011;47788;46.172;-1.158;2022-10-15T12:36:21;5.22;;;0.70;;
58565;SDS011;47788;46.172;-1.158;2022-10-15T12:38:57;2.13;;;0.45;;
58565;SDS011;47788;46.172;-1.158;2022-10-15T12:44:04;3.63;;;0.57;;
58565;SDS011;47788;46.172;-1.158;2022-10-15T12:46:36;4.60;;;0.77;;
58565;SDS011;47788;46.172;-1.158;2022-10-15T12:51:54;8.00;;;0.60;;
58565;SDS011;47788;46.172;-1.158;2022-10-15T12:54:31;5.95;;;0.60;;
58565;SDS011;47788;46.172;-1.158;2022-10-15T12:56:58;2.88;;;0.47;;
58565;SDS011;47788;46.172;-1.158;2022-10-15T12:59:27;3.00;;;0.52;;
58565;SDS011;47788;46.172;-1.158;2022-10-15T13:02:32;1.92;;;0.70;;
58565;SDS011;47788;46.172;-1.158;2022-10-15T13:05:08;3.70;;;0.40;;
58565;SDS011;47788;46.172;-1.158;2022-10-15T13:07:48;4.75;;;0.43;;
58565;SDS011;47788;46.172;-1.158;2022-10-15T13:10:18;1.98;;;0.40;;
58565;SDS011;47788;46.172;-1.158;2022-10-15T13:12:54;0.95;;;0.20;;
58565;SDS011;47788;46.172;-1.158;2022-10-15T13:15:24;7.18;;;0.50;;
58565;SDS011;47788;46.172;-1.158;2022-10-15T13:17:53;2.13;;;0.47;;
58565;SDS011;47788;46.172;-1.158;2022-10-15T13:20:28;3.67;;;0.90;;
58565;SDS011;47788;46.172;-1.158;2022-10-15T13:23:08;4.38;;;0.70;;
58565;SDS011;47788;46.172;-1.158;2022-10-15T13:25:41;1.48;;;0.40;;
58565;SDS011;47788;46.172;-1.158;2022-10-15T13:31:02;1.98;;;0.30;;
58565;SDS011;47788;46.172;-1.158;2022-10-15T13:33:31;2.30;;;0.30;;
58565;SDS011;47788;46.172;-1.158;2022-10-15T13:36:06;4.45;;;0.50;;
58565;SDS011;47788;46.172;-1.158;2022-10-15T13:38:33;1.95;;;0.40;;
58565;SDS011;47788;46.172;-1.158;2022-10-15T13:41:01;3.00;;;0.45;;
58565;SDS011;47788;46.172;-1.158;2022-10-15T13:43:27;2.10;;;0.30;;
58565;SDS011;47788;46.172;-1.158;2022-10-15T13:45:54;3.28;;;0.50;;
58565;SDS011;47788;46.172;-1.158;2022-10-15T13:48:23;3.53;;;0.50;;
58565;SDS011;47788;46.172;-1.158;2022-10-15T13:50:53;1.90;;;0.38;;
58565;SDS011;47788;46.172;-1.158;2022-10-15T13:55:55;3.53;;;0.40;;
58565;SDS011;47788;46.172;-1.158;2022-10-15T13:58:26;2.72;;;0.70;;
58565;SDS011;47788;46.172;-1.158;2022-10-15T14:00:56;5.28;;;0.40;;
58565;SDS011;47788;46.172;-1.158;2022-10-15T14:03:32;2.10;;;0.30;;
58565;SDS011;47788;46.172;-1.158;2022-10-15T14:08:48;3.97;;;0.40;;
58565;SDS011;47788;46.172;-1.158;2022-10-15T14:11:16;4.50;;;0.70;;
58565;SDS011;47788;46.172;-1.158;2022-10-15T14:13:49;2.78;;;0.57;;
58565;SDS011;47788;46.172;-1.158;2022-10-15T14:16:49;2.75;;;0.40;;
58565;SDS011;47788;46.172;-1.158;2022-10-15T14:19:14;4.43;;;0.40;;
58565;SDS011;47788;46.172;-1.158;2022-10-15T14:21:44;2.67;;;0.30;;
58565;SDS011;47788;46.172;-1.158;2022-10-15T14:24:16;2.25;;;0.57;;
58565;SDS011;47788;46.172;-1.158;2022-10-15T14:26:45;2.25;;;0.60;;
58565;SDS011;47788;46.172;-1.158;2022-10-15T14:29:23;2.50;;;0.32;;
58565;SDS011;47788;46.172;-1.158;2022-10-15T14:31:51;2.75;;;0.60;;
58565;SDS011;47788;46.172;-1.158;2022-10-15T14:36:53;2.85;;;0.55;;
58565;SDS011;47788;46.172;-1.158;2022-10-15T14:42:05;2.53;;;0.60;;
58565;SDS011;47788;46.172;-1.158;2022-10-15T14:44:49;3.90;;;0.70;;
58565;SDS011;47788;46.172;-1.158;2022-10-15T14:47:25;1.98;;;0.43;;
58565;SDS011;47788;46.172;-1.158;2022-10-15T14:49:56;2.15;;;0.40;;
58565;SDS011;47788;46.172;-1.158;2022-10-15T14:52:24;5.20;;;1.20;;
58565;SDS011;47788;46.172;-1.158;2022-10-15T14:57:29;3.30;;;0.40;;
58565;SDS011;47788;46.172;-1.158;2022-10-15T14:59:58;6.07;;;0.50;;
58565;SDS011;47788;46.172;-1.158;2022-10-15T15:02:26;2.78;;;0.75;;
58565;SDS011;47788;46.172;-1.158;2022-10-15T15:07:37;5.30;;;1.00;;
58565;SDS011;47788;46.172;-1.158;2022-10-15T15:10:04;3.88;;;0.60;;
58565;SDS011;47788;46.172;-1.158;2022-10-15T15:12:31;3.33;;;0.40;;
58565;SDS011;47788;46.172;-1.158;2022-10-15T15:14:57;3.88;;;0.60;;
58565;SDS011;47788;46.172;-1.158;2022-10-15T15:17:24;5.97;;;0.63;;
58565;SDS011;47788;46.172;-1.158;2022-10-15T15:19:54;4.03;;;0.80;;
58565;SDS011;47788;46.172;-1.158;2022-10-15T15:22:30;3.92;;;0.60;;
58565;SDS011;47788;46.172;-1.158;2022-10-15T15:24:57;1.90;;;0.50;;
58565;SDS011;47788;46.172;-1.158;2022-10-15T15:27:28;7.45;;;0.50;;
58565;SDS011;47788;46.172;-1.158;2022-10-15T15:29:55;4.43;;;0.75;;
58565;SDS011;47788;46.172;-1.158;2022-10-15T15:32:21;3.28;;;0.68;;
58565;SDS011;47788;46.172;-1.158;2022-10-15T15:34:48;3.80;;;0.80;;
58565;SDS011;47788;46.172;-1.158;2022-10-15T15:37:21;5.95;;;0.88;;
58565;SDS011;47788;46.172;-1.158;2022-10-15T15:39:48;5.43;;;1.10;;
58565;SDS011;47788;46.172;-1.158;2022-10-15T15:42:15;2.72;;;0.40;;
58565;SDS011;47788;46.172;-1.158;2022-10-15T15:44:42;4.30;;;0.52;;
58565;SDS011;47788;46.172;-1.158;2022-10-15T15:47:08;4.80;;;1.15;;
58565;SDS011;47788;46.172;-1.158;2022-10-15T15:49:35;7.28;;;3.55;;
58565;SDS011;47788;46.172;-1.158;2022-10-15T15:52:02;7.85;;;4.53;;
58565;SDS011;47788;46.172;-1.158;2022-10-15T15:54:29;6.65;;;3.78;;
58565;SDS011;47788;46.172;-1.158;2022-10-15T15:56:55;6.95;;;1.38;;
58565;SDS011;47788;46.172;-1.158;2022-10-15T15:59:20;3.15;;;0.98;;
58565;SDS011;47788;46.172;-1.158;2022-10-15T16:01:46;4.75;;;1.13;;
58565;SDS011;47788;46.172;-1.158;2022-10-15T16:04:12;4.60;;;1.20;;
58565;SDS011;47788;46.172;-1.158;2022-10-15T16:06:38;6.72;;;1.20;;
58565;SDS011;47788;46.172;-1.158;2022-10-15T16:09:04;11.43;;;2.10;;
58565;SDS011;47788;46.172;-1.158;2022-10-15T16:11:30;9.13;;;2.80;;
58565;SDS011;47788;46.172;-1.158;2022-10-15T16:13:56;6.80;;;1.65;;
58565;SDS011;47788;46.172;-1.158;2022-10-15T16:16:23;5.82;;;1.73;;
58565;SDS011;47788;46.172;-1.158;2022-10-15T16:18:49;4.05;;;2.00;;
58565;SDS011;47788;46.172;-1.158;2022-10-15T16:21:24;5.78;;;2.47;;
58565;SDS011;47788;46.172;-1.158;2022-10-15T16:23:50;6.45;;;1.50;;
58565;SDS011;47788;46.172;-1.158;2022-10-15T16:26:16;4.90;;;1.58;;
58565;SDS011;47788;46.172;-1.158;2022-10-15T16:28:42;4.82;;;1.40;;
58565;SDS011;47788;46.172;-1.158;2022-10-15T16:31:12;6.30;;;1.63;;
58565;SDS011;47788;46.172;-1.158;2022-10-15T16:33:39;7.13;;;1.88;;
58565;SDS011;47788;46.172;-1.158;2022-10-15T16:36:05;4.95;;;1.67;;
58565;SDS011;47788;46.172;-1.158;2022-10-15T16:38:30;4.38;;;1.27;;
58565;SDS011;47788;46.172;-1.158;2022-10-15T16:40:56;5.57;;;1.40;;
58565;SDS011;47788;46.172;-1.158;2022-10-15T16:43:22;3.67;;;1.30;;
58565;SDS011;47788;46.172;-1.158;2022-10-15T16:45:56;7.65;;;1.27;;
58565;SDS011;47788;46.172;-1.158;2022-10-15T16:48:23;3.97;;;0.95;;
58565;SDS011;47788;46.172;-1.158;2022-10-15T16:53:28;4.72;;;2.97;;